createdAt,value
2022-08-26T00:02:10.185Z,32.28
2022-08-26T00:08:58.328Z,32.25
2022-08-26T00:15:46.668Z,31.68
2022-08-26T00:22:32.705Z,32.00
2022-08-26T00:29:21.942Z,31.56
2022-08-26T00:36:09.189Z,31.02
2022-08-26T00:43:09.574Z,31.38
2022-08-26T00:49:59.163Z,31.21
2022-08-26T00:56:52.950Z,31.15
2022-08-26T01:03:40.896Z,31.16
2022-08-26T01:10:32.918Z,31.19
2022-08-26T01:17:18.555Z,31.25
2022-08-26T01:24:07.623Z,31.21
2022-08-26T01:30:58.736Z,30.58
2022-08-26T01:37:44.972Z,31.23
2022-08-26T01:44:45.088Z,31.04
2022-08-26T01:51:32.272Z,31.14
2022-08-26T01:58:24.023Z,31.08
2022-08-26T02:05:17.755Z,30.99
2022-08-26T02:12:04.124Z,30.85
2022-08-26T02:18:52.763Z,30.65
2022-08-26T02:25:52.052Z,30.57
2022-08-26T02:32:37.784Z,30.14
2022-08-26T02:39:25.995Z,30.18
2022-08-26T03:06:52.940Z,29.98
2022-08-26T03:13:39.027Z,29.91
2022-08-26T03:20:25.001Z,29.88
2022-08-26T03:27:13.103Z,29.81
2022-08-26T03:34:00.121Z,29.73
2022-08-26T03:40:46.947Z,29.64
2022-08-26T03:47:35.081Z,29.53
2022-08-26T03:54:23.701Z,29.42
2022-08-26T04:01:09.524Z,29.25
2022-08-26T04:07:57.530Z,29.04
2022-08-26T04:14:43.770Z,28.88
2022-08-26T04:21:31.178Z,28.73
2022-08-26T04:28:19.256Z,28.60
2022-08-26T04:35:05.149Z,28.58
2022-08-26T04:41:55.082Z,28.65
2022-08-26T04:48:43.618Z,28.68
2022-08-26T04:55:38.585Z,28.65
2022-08-26T05:02:25.368Z,28.76
2022-08-26T05:09:13.241Z,28.89
2022-08-26T05:16:04.665Z,28.63
2022-08-26T05:22:50.594Z,28.57
2022-08-26T05:29:39.766Z,28.60
2022-08-26T05:36:27.908Z,28.61
2022-08-26T05:43:14.053Z,28.17
2022-08-26T05:50:05.472Z,28.53
2022-08-26T05:56:50.992Z,28.53
2022-08-26T06:03:37.441Z,28.63
2022-08-26T06:10:33.178Z,28.38
2022-08-26T06:17:18.728Z,28.32
2022-08-26T06:24:20.904Z,28.27
2022-08-26T06:31:15.475Z,28.25
2022-08-26T06:38:01.065Z,28.26
2022-08-26T06:44:46.391Z,28.53
2022-08-26T06:51:38.244Z,28.40
2022-08-26T06:58:23.998Z,28.39
2022-08-26T07:05:11.908Z,28.53
2022-08-26T07:12:00.261Z,28.51
2022-08-26T07:18:47.017Z,28.59
2022-08-26T07:25:32.705Z,28.66
2022-08-26T07:32:23.838Z,28.67
2022-08-26T07:39:09.892Z,28.70
2022-08-26T07:45:55.872Z,28.68
2022-08-26T07:52:44.274Z,28.36
2022-08-26T07:59:30.853Z,28.70
2022-08-26T08:06:16.062Z,28.84
2022-08-26T08:13:05.416Z,28.63
2022-08-26T08:19:51.147Z,28.65
2022-08-26T08:26:38.962Z,28.39
2022-08-26T08:33:30.187Z,28.48
2022-08-26T08:40:19.257Z,28.58
2022-08-26T08:47:12.197Z,28.37
2022-08-26T08:54:00.518Z,27.75
2022-08-26T09:00:54.708Z,28.25
2022-08-26T09:07:44.390Z,28.28
2022-08-26T09:14:35.462Z,28.33
2022-08-26T09:21:26.075Z,28.32
2022-08-26T09:28:19.979Z,28.23
2022-08-26T09:35:13.267Z,28.16
2022-08-26T09:42:16.705Z,27.98
2022-08-26T09:49:41.208Z,28.26
2022-08-26T09:56:34.793Z,28.37
2022-08-26T10:03:31.376Z,28.46
2022-08-26T10:10:24.046Z,28.51
2022-08-26T10:17:19.900Z,28.50
2022-08-26T10:24:08.308Z,28.58
2022-08-26T10:31:04.540Z,28.68
2022-08-26T10:38:06.723Z,28.77
2022-08-26T10:44:58.615Z,28.93
2022-08-26T10:51:53.801Z,29.01
2022-08-26T10:59:04.921Z,29.04
2022-08-26T11:06:28.012Z,29.05
2022-08-26T11:13:13.578Z,29.27
2022-08-26T11:20:13.472Z,29.37
2022-08-26T11:27:00.135Z,29.48
2022-08-26T11:33:52.836Z,29.61
2022-08-26T11:40:42.567Z,29.75
2022-08-26T11:47:35.582Z,29.88
2022-08-26T11:54:35.375Z,30.03
2022-08-26T12:01:32.205Z,30.15
2022-08-26T12:08:22.516Z,30.34
2022-08-26T12:15:17.542Z,30.24
2022-08-26T12:22:11.261Z,30.68
2022-08-26T12:29:01.587Z,31.08
2022-08-26T12:36:00.110Z,31.40
2022-08-26T12:42:48.757Z,31.59
2022-08-26T12:49:34.735Z,31.85
2022-08-26T12:56:30.629Z,32.07
2022-08-26T13:03:47.861Z,32.29
2022-08-26T13:10:41.603Z,32.53
2022-08-26T13:17:27.098Z,32.52
2022-08-26T13:24:19.012Z,32.70
2022-08-26T13:31:04.880Z,33.26
2022-08-26T13:37:51.081Z,33.48
2022-08-26T13:44:39.347Z,33.46
2022-08-26T13:51:25.013Z,33.50
2022-08-26T13:58:10.954Z,33.93
2022-08-26T14:04:59.181Z,34.08
2022-08-26T14:11:54.448Z,34.28
2022-08-26T14:18:48.614Z,34.24
2022-08-26T14:25:39.201Z,34.42
2022-08-26T14:32:30.138Z,34.34
2022-08-26T14:39:17.285Z,34.16
2022-08-26T14:46:06.116Z,34.10
2022-08-26T14:53:07.462Z,34.11
2022-08-26T14:59:53.199Z,34.05
2022-08-26T15:06:41.542Z,33.96
2022-08-26T15:13:27.770Z,33.95
2022-08-26T15:20:14.208Z,33.93
2022-08-26T15:27:02.312Z,33.64
2022-08-26T15:33:48.572Z,33.73
2022-08-26T15:40:34.085Z,33.66
2022-08-26T15:47:23.780Z,33.04
2022-08-26T15:54:10.578Z,33.59
2022-08-26T16:00:57.168Z,33.48
2022-08-26T16:07:45.249Z,33.39
2022-08-26T16:14:31.134Z,33.35
2022-08-26T16:21:20.806Z,33.25
2022-08-26T16:28:09.868Z,33.14
2022-08-26T16:34:57.215Z,33.10
2022-08-26T16:41:43.977Z,32.89
2022-08-26T16:48:32.060Z,32.40
2022-08-26T16:55:19.323Z,32.63
2022-08-26T17:02:05.564Z,32.48
2022-08-26T17:08:53.651Z,32.44
2022-08-26T17:15:39.190Z,32.35
2022-08-26T17:22:24.966Z,32.28
2022-08-26T17:29:13.192Z,31.87
2022-08-26T17:35:59.504Z,32.15
2022-08-26T17:42:45.856Z,31.83
2022-08-26T17:49:33.913Z,31.88
2022-08-26T17:56:25.680Z,31.89
2022-08-26T18:03:11.406Z,31.92
2022-08-26T18:10:00.376Z,31.90
2022-08-26T18:16:46.967Z,31.48
2022-08-26T18:23:34.609Z,31.73
2022-08-26T18:30:24.697Z,31.65
2022-08-26T18:44:18.919Z,31.47
2022-08-26T18:51:07.392Z,31.33
2022-08-26T18:57:57.969Z,31.23
2022-08-26T19:04:43.449Z,31.15
2022-08-26T19:11:37.511Z,31.18
2022-08-26T19:18:28.705Z,31.17
2022-08-26T19:25:14.571Z,31.12
2022-08-26T19:32:03.315Z,31.09
2022-08-26T19:38:49.569Z,30.78
2022-08-26T19:45:36.537Z,31.01
2022-08-26T19:52:30.001Z,30.97
2022-08-26T19:59:15.801Z,30.95
2022-08-26T20:06:01.965Z,30.87
2022-08-26T20:12:52.285Z,30.77
2022-08-26T20:19:50.863Z,30.78
2022-08-26T20:26:38.757Z,30.71
2022-08-26T20:33:27.033Z,30.65
2022-08-26T20:40:15.721Z,30.63
2022-08-26T20:47:01.954Z,30.60
2022-08-26T20:53:50.415Z,30.24
2022-08-26T21:00:35.910Z,30.57
2022-08-26T21:07:21.476Z,30.54
2022-08-26T21:14:15.910Z,30.49
2022-08-26T21:21:02.830Z,30.19
2022-08-26T21:27:48.410Z,30.41
2022-08-26T21:34:36.515Z,30.30
2022-08-26T21:41:25.047Z,30.24
2022-08-26T21:48:10.613Z,30.20
2022-08-26T21:55:09.107Z,30.15
2022-08-26T22:01:57.231Z,30.13
2022-08-26T22:08:43.283Z,29.86
2022-08-26T22:15:35.352Z,29.77
2022-08-26T22:22:20.878Z,30.03
2022-08-26T22:29:06.773Z,29.99
2022-08-26T22:35:56.477Z,29.93
2022-08-26T22:42:42.092Z,29.87
2022-08-26T22:49:41.167Z,29.85
2022-08-26T22:56:30.203Z,29.77
2022-08-26T23:03:16.718Z,29.70
2022-08-26T23:10:03.442Z,29.63
2022-08-26T23:16:51.962Z,29.55
2022-08-26T23:23:37.998Z,29.54
2022-08-26T23:30:27.885Z,29.48
2022-08-26T23:37:16.421Z,29.38
2022-08-26T23:44:03.667Z,29.32
2022-08-26T23:51:03.404Z,29.25
2022-08-26T23:57:51.514Z,29.23
